sensor_id;sensor_type;location;lat;lon;timestamp;temperature;humidity
26035;DHT22;13809;48.632;11.576;2024-01-30T00:03:25;4.90;34.40
26035;DHT22;13809;48.632;11.576;2024-01-30T00:08:28;4.90;34.40
26035;DHT22;13809;48.632;11.576;2024-01-30T00:13:33;4.80;34.60
26035;DHT22;13809;48.632;11.576;2024-01-30T00:18:36;4.80;34.80
26035;DHT22;13809;48.632;11.576;2024-01-30T00:23:41;4.80;34.70
26035;DHT22;13809;48.632;11.576;2024-01-30T00:28:46;4.80;34.80
26035;DHT22;13809;48.632;11.576;2024-01-30T00:33:49;4.70;34.60
26035;DHT22;13809;48.632;11.576;2024-01-30T00:38:52;4.70;34.60
26035;DHT22;13809;48.632;11.576;2024-01-30T00:43:58;4.60;34.70
26035;DHT22;13809;48.632;11.576;2024-01-30T00:49:01;4.60;34.90
26035;DHT22;13809;48.632;11.576;2024-01-30T00:54:05;4.60;35.00
26035;DHT22;13809;48.632;11.576;2024-01-30T00:59:10;4.50;34.90
26035;DHT22;13809;48.632;11.576;2024-01-30T01:04:13;4.50;35.00
26035;DHT22;13809;48.632;11.576;2024-01-30T01:09:17;4.60;35.00
26035;DHT22;13809;48.632;11.576;2024-01-30T01:14:22;4.50;34.90
26035;DHT22;13809;48.632;11.576;2024-01-30T01:19:25;4.50;35.00
26035;DHT22;13809;48.632;11.576;2024-01-30T01:24:29;4.50;34.90
26035;DHT22;13809;48.632;11.576;2024-01-30T01:29:33;4.50;34.90
26035;DHT22;13809;48.632;11.576;2024-01-30T01:34:37;4.50;34.90
26035;DHT22;13809;48.632;11.576;2024-01-30T01:39:40;4.40;34.80
26035;DHT22;13809;48.632;11.576;2024-01-30T01:44:45;4.40;34.80
26035;DHT22;13809;48.632;11.576;2024-01-30T01:49:48;4.30;34.70
26035;DHT22;13809;48.632;11.576;2024-01-30T01:54:51;4.10;34.70
26035;DHT22;13809;48.632;11.576;2024-01-30T01:59:56;4.10;34.80
26035;DHT22;13809;48.632;11.576;2024-01-30T02:04:59;4.00;34.90
26035;DHT22;13809;48.632;11.576;2024-01-30T02:10:04;3.90;34.80
26035;DHT22;13809;48.632;11.576;2024-01-30T02:15:08;3.90;34.70
26035;DHT22;13809;48.632;11.576;2024-01-30T02:20:19;3.80;34.80
26035;DHT22;13809;48.632;11.576;2024-01-30T02:25:32;3.70;34.80
26035;DHT22;13809;48.632;11.576;2024-01-30T02:30:36;3.60;35.60
26035;DHT22;13809;48.632;11.576;2024-01-30T02:35:39;3.60;35.40
26035;DHT22;13809;48.632;11.576;2024-01-30T02:40:44;3.60;35.60
26035;DHT22;13809;48.632;11.576;2024-01-30T02:45:47;3.70;35.70
26035;DHT22;13809;48.632;11.576;2024-01-30T02:50:50;3.70;35.40
26035;DHT22;13809;48.632;11.576;2024-01-30T02:55:55;3.70;35.60
26035;DHT22;13809;48.632;11.576;2024-01-30T03:00:58;3.60;35.60
26035;DHT22;13809;48.632;11.576;2024-01-30T03:06:01;3.70;35.30
26035;DHT22;13809;48.632;11.576;2024-01-30T03:11:06;3.60;35.20
26035;DHT22;13809;48.632;11.576;2024-01-30T03:16:09;3.60;35.30
26035;DHT22;13809;48.632;11.576;2024-01-30T03:21:12;3.60;35.20
26035;DHT22;13809;48.632;11.576;2024-01-30T03:26:17;3.60;35.00
26035;DHT22;13809;48.632;11.576;2024-01-30T03:31:21;3.50;34.90
26035;DHT22;13809;48.632;11.576;2024-01-30T03:36:24;3.40;34.70
26035;DHT22;13809;48.632;11.576;2024-01-30T03:41:29;3.30;35.20
26035;DHT22;13809;48.632;11.576;2024-01-30T03:46:32;3.20;35.30
26035;DHT22;13809;48.632;11.576;2024-01-30T03:51:35;3.20;35.30
26035;DHT22;13809;48.632;11.576;2024-01-30T03:56:40;3.20;35.30
26035;DHT22;13809;48.632;11.576;2024-01-30T04:01:46;3.20;35.30
26035;DHT22;13809;48.632;11.576;2024-01-30T04:06:49;3.20;35.30
26035;DHT22;13809;48.632;11.576;2024-01-30T04:11:54;3.20;35.30
26035;DHT22;13809;48.632;11.576;2024-01-30T04:16:57;3.20;35.30
26035;DHT22;13809;48.632;11.576;2024-01-30T04:22:00;3.20;35.30
26035;DHT22;13809;48.632;11.576;2024-01-30T04:27:05;3.10;35.20
26035;DHT22;13809;48.632;11.576;2024-01-30T04:32:09;3.20;35.30
26035;DHT22;13809;48.632;11.576;2024-01-30T04:37:13;3.20;35.30
26035;DHT22;13809;48.632;11.576;2024-01-30T04:42:17;3.10;35.20
26035;DHT22;13809;48.632;11.576;2024-01-30T04:47:21;3.10;35.20
26035;DHT22;13809;48.632;11.576;2024-01-30T04:52:24;3.10;35.20
26035;DHT22;13809;48.632;11.576;2024-01-30T04:57:28;3.10;35.20
26035;DHT22;13809;48.632;11.576;2024-01-30T05:02:33;3.00;35.10
26035;DHT22;13809;48.632;11.576;2024-01-30T05:07:36;3.00;35.20
26035;DHT22;13809;48.632;11.576;2024-01-30T05:12:44;2.90;35.00
26035;DHT22;13809;48.632;11.576;2024-01-30T05:17:47;2.80;35.00
26035;DHT22;13809;48.632;11.576;2024-01-30T05:22:50;2.70;34.90
26035;DHT22;13809;48.632;11.576;2024-01-30T05:27:55;2.70;34.90
26035;DHT22;13809;48.632;11.576;2024-01-30T05:32:59;2.70;34.90
26035;DHT22;13809;48.632;11.576;2024-01-30T05:38:03;2.70;34.90
26035;DHT22;13809;48.632;11.576;2024-01-30T05:43:07;2.80;35.00
26035;DHT22;13809;48.632;11.576;2024-01-30T05:48:11;2.80;35.00
26035;DHT22;13809;48.632;11.576;2024-01-30T05:53:14;2.80;35.00
26035;DHT22;13809;48.632;11.576;2024-01-30T05:58:20;2.70;34.90
26035;DHT22;13809;48.632;11.576;2024-01-30T06:03:24;2.70;34.90
26035;DHT22;13809;48.632;11.576;2024-01-30T06:08:27;2.70;35.00
26035;DHT22;13809;48.632;11.576;2024-01-30T06:13:32;2.70;34.90
26035;DHT22;13809;48.632;11.576;2024-01-30T06:18:35;2.60;34.80
26035;DHT22;13809;48.632;11.576;2024-01-30T06:23:39;2.50;34.90
26035;DHT22;13809;48.632;11.576;2024-01-30T06:28:44;2.50;35.30
26035;DHT22;13809;48.632;11.576;2024-01-30T06:33:47;2.60;35.80
26035;DHT22;13809;48.632;11.576;2024-01-30T06:38:56;2.40;35.30
26035;DHT22;13809;48.632;11.576;2024-01-30T06:44:02;2.40;35.70
26035;DHT22;13809;48.632;11.576;2024-01-30T06:49:05;2.40;35.50
26035;DHT22;13809;48.632;11.576;2024-01-30T06:54:09;2.40;35.30
26035;DHT22;13809;48.632;11.576;2024-01-30T06:59:14;2.40;35.40
26035;DHT22;13809;48.632;11.576;2024-01-30T07:04:17;2.40;35.50
26035;DHT22;13809;48.632;11.576;2024-01-30T07:09:20;2.30;35.50
26035;DHT22;13809;48.632;11.576;2024-01-30T07:14:26;2.40;35.70
26035;DHT22;13809;48.632;11.576;2024-01-30T07:19:29;2.30;35.80
26035;DHT22;13809;48.632;11.576;2024-01-30T07:24:33;2.40;35.80
26035;DHT22;13809;48.632;11.576;2024-01-30T07:29:38;2.40;36.00
26035;DHT22;13809;48.632;11.576;2024-01-30T07:34:41;2.50;36.20
26035;DHT22;13809;48.632;11.576;2024-01-30T07:40:04;2.50;36.10
26035;DHT22;13809;48.632;11.576;2024-01-30T07:45:10;2.60;36.20
26035;DHT22;13809;48.632;11.576;2024-01-30T07:50:13;2.60;36.20
26035;DHT22;13809;48.632;11.576;2024-01-30T07:55:16;2.70;36.20
26035;DHT22;13809;48.632;11.576;2024-01-30T08:00:22;2.80;36.50
26035;DHT22;13809;48.632;11.576;2024-01-30T08:05:26;2.80;36.90
26035;DHT22;13809;48.632;11.576;2024-01-30T08:10:29;2.90;37.30
26035;DHT22;13809;48.632;11.576;2024-01-30T08:15:34;3.00;37.50
26035;DHT22;13809;48.632;11.576;2024-01-30T08:20:37;3.20;38.00
26035;DHT22;13809;48.632;11.576;2024-01-30T08:25:40;3.40;38.00
26035;DHT22;13809;48.632;11.576;2024-01-30T08:30:45;3.60;38.10
26035;DHT22;13809;48.632;11.576;2024-01-30T08:35:48;3.90;38.40
26035;DHT22;13809;48.632;11.576;2024-01-30T08:40:51;4.10;38.20
26035;DHT22;13809;48.632;11.576;2024-01-30T08:45:58;4.20;38.40
26035;DHT22;13809;48.632;11.576;2024-01-30T08:51:02;4.40;38.90
26035;DHT22;13809;48.632;11.576;2024-01-30T08:56:06;4.60;38.60
26035;DHT22;13809;48.632;11.576;2024-01-30T09:01:11;4.80;38.60
26035;DHT22;13809;48.632;11.576;2024-01-30T09:06:14;5.10;38.70
26035;DHT22;13809;48.632;11.576;2024-01-30T09:11:18;5.30;38.50
26035;DHT22;13809;48.632;11.576;2024-01-30T09:16:22;5.50;38.40
26035;DHT22;13809;48.632;11.576;2024-01-30T09:21:25;5.70;38.70
26035;DHT22;13809;48.632;11.576;2024-01-30T09:26:29;6.00;38.60
26035;DHT22;13809;48.632;11.576;2024-01-30T09:31:33;6.30;38.60
26035;DHT22;13809;48.632;11.576;2024-01-30T09:36:38;6.50;38.70
26035;DHT22;13809;48.632;11.576;2024-01-30T09:41:44;6.80;38.40
26035;DHT22;13809;48.632;11.576;2024-01-30T09:46:49;7.10;38.50
26035;DHT22;13809;48.632;11.576;2024-01-30T09:51:54;7.30;38.70
26035;DHT22;13809;48.632;11.576;2024-01-30T09:56:57;7.40;38.60
26035;DHT22;13809;48.632;11.576;2024-01-30T10:02:02;7.60;38.30
26035;DHT22;13809;48.632;11.576;2024-01-30T10:07:06;7.70;38.20
26035;DHT22;13809;48.632;11.576;2024-01-30T10:12:10;7.90;38.10
26035;DHT22;13809;48.632;11.576;2024-01-30T10:17:15;8.00;38.10
26035;DHT22;13809;48.632;11.576;2024-01-30T10:22:33;8.20;38.00
26035;DHT22;13809;48.632;11.576;2024-01-30T10:27:36;8.40;38.10
26035;DHT22;13809;48.632;11.576;2024-01-30T10:32:41;8.60;38.10
26035;DHT22;13809;48.632;11.576;2024-01-30T10:37:44;8.80;37.90
26035;DHT22;13809;48.632;11.576;2024-01-30T10:42:51;9.00;37.60
26035;DHT22;13809;48.632;11.576;2024-01-30T10:47:59;9.20;37.40
26035;DHT22;13809;48.632;11.576;2024-01-30T10:53:06;9.40;37.20
26035;DHT22;13809;48.632;11.576;2024-01-30T10:58:12;9.60;37.30
26035;DHT22;13809;48.632;11.576;2024-01-30T11:03:18;9.80;37.30
26035;DHT22;13809;48.632;11.576;2024-01-30T11:08:24;10.00;36.00
26035;DHT22;13809;48.632;11.576;2024-01-30T11:13:27;10.10;35.80
26035;DHT22;13809;48.632;11.576;2024-01-30T11:18:35;10.30;35.80
26035;DHT22;13809;48.632;11.576;2024-01-30T11:23:39;10.40;35.70
26035;DHT22;13809;48.632;11.576;2024-01-30T11:28:52;10.60;35.80
26035;DHT22;13809;48.632;11.576;2024-01-30T11:33:57;10.80;35.30
26035;DHT22;13809;48.632;11.576;2024-01-30T11:39:01;10.90;35.50
26035;DHT22;13809;48.632;11.576;2024-01-30T11:44:05;11.10;35.60
26035;DHT22;13809;48.632;11.576;2024-01-30T11:49:10;11.30;35.00
26035;DHT22;13809;48.632;11.576;2024-01-30T11:54:14;11.40;35.00
26035;DHT22;13809;48.632;11.576;2024-01-30T11:59:17;11.50;35.00
26035;DHT22;13809;48.632;11.576;2024-01-30T12:04:22;11.50;34.90
26035;DHT22;13809;48.632;11.576;2024-01-30T12:09:25;11.50;34.60
26035;DHT22;13809;48.632;11.576;2024-01-30T12:14:29;11.50;34.80
26035;DHT22;13809;48.632;11.576;2024-01-30T12:19:34;11.50;35.00
26035;DHT22;13809;48.632;11.576;2024-01-30T12:24:38;11.50;34.60
26035;DHT22;13809;48.632;11.576;2024-01-30T12:29:42;11.50;34.70
26035;DHT22;13809;48.632;11.576;2024-01-30T12:34:47;11.50;34.80
26035;DHT22;13809;48.632;11.576;2024-01-30T12:40:01;11.50;34.70
26035;DHT22;13809;48.632;11.576;2024-01-30T12:45:05;11.50;34.60
26035;DHT22;13809;48.632;11.576;2024-01-30T12:50:10;11.50;34.40
26035;DHT22;13809;48.632;11.576;2024-01-30T12:55:14;11.50;34.60
26035;DHT22;13809;48.632;11.576;2024-01-30T13:00:17;11.50;34.60
26035;DHT22;13809;48.632;11.576;2024-01-30T13:05:22;11.50;34.70
26035;DHT22;13809;48.632;11.576;2024-01-30T13:10:26;11.50;34.70
26035;DHT22;13809;48.632;11.576;2024-01-30T13:15:29;11.50;34.80
26035;DHT22;13809;48.632;11.576;2024-01-30T13:20:34;11.50;34.70
26035;DHT22;13809;48.632;11.576;2024-01-30T13:25:37;11.50;34.60
26035;DHT22;13809;48.632;11.576;2024-01-30T13:30:40;11.50;35.30
26035;DHT22;13809;48.632;11.576;2024-01-30T13:35:45;11.50;34.70
26035;DHT22;13809;48.632;11.576;2024-01-30T13:40:48;11.50;34.60
26035;DHT22;13809;48.632;11.576;2024-01-30T13:45:51;11.50;34.70
26035;DHT22;13809;48.632;11.576;2024-01-30T13:50:56;11.50;36.00
26035;DHT22;13809;48.632;11.576;2024-01-30T13:56:00;11.60;35.20
26035;DHT22;13809;48.632;11.576;2024-01-30T14:01:09;11.60;34.90
26035;DHT22;13809;48.632;11.576;2024-01-30T14:06:14;11.60;34.50
26035;DHT22;13809;48.632;11.576;2024-01-30T14:11:17;11.60;34.80
26035;DHT22;13809;48.632;11.576;2024-01-30T14:16:20;11.60;34.90
26035;DHT22;13809;48.632;11.576;2024-01-30T14:21:25;11.60;34.80
26035;DHT22;13809;48.632;11.576;2024-01-30T14:26:28;11.60;34.70
26035;DHT22;13809;48.632;11.576;2024-01-30T14:31:31;11.60;34.70
26035;DHT22;13809;48.632;11.576;2024-01-30T14:36:36;11.50;34.60
26035;DHT22;13809;48.632;11.576;2024-01-30T14:41:39;11.50;34.70
26035;DHT22;13809;48.632;11.576;2024-01-30T14:46:44;11.50;35.20
26035;DHT22;13809;48.632;11.576;2024-01-30T14:51:48;11.40;34.70
26035;DHT22;13809;48.632;11.576;2024-01-30T14:56:52;11.40;34.60
26035;DHT22;13809;48.632;11.576;2024-01-30T15:01:55;11.40;34.70
26035;DHT22;13809;48.632;11.576;2024-01-30T15:07:02;11.30;34.70
26035;DHT22;13809;48.632;11.576;2024-01-30T15:12:06;11.30;35.00
26035;DHT22;13809;48.632;11.576;2024-01-30T15:17:10;11.30;35.00
26035;DHT22;13809;48.632;11.576;2024-01-30T15:22:14;11.30;35.00
26035;DHT22;13809;48.632;11.576;2024-01-30T15:27:18;11.30;34.90
26035;DHT22;13809;48.632;11.576;2024-01-30T15:32:22;11.30;34.70
26035;DHT22;13809;48.632;11.576;2024-01-30T15:37:26;11.20;34.60
26035;DHT22;13809;48.632;11.576;2024-01-30T15:42:30;11.20;34.60
26035;DHT22;13809;48.632;11.576;2024-01-30T15:47:33;11.10;34.60
26035;DHT22;13809;48.632;11.576;2024-01-30T15:52:38;11.10;34.60
26035;DHT22;13809;48.632;11.576;2024-01-30T15:57:41;11.00;34.40
26035;DHT22;13809;48.632;11.576;2024-01-30T16:02:45;11.00;34.60
26035;DHT22;13809;48.632;11.576;2024-01-30T16:07:49;11.00;34.60
26035;DHT22;13809;48.632;11.576;2024-01-30T16:12:53;11.00;34.60
26035;DHT22;13809;48.632;11.576;2024-01-30T16:17:57;10.90;36.40
26035;DHT22;13809;48.632;11.576;2024-01-30T16:23:01;10.90;35.60
26035;DHT22;13809;48.632;11.576;2024-01-30T16:28:05;10.90;34.70
26035;DHT22;13809;48.632;11.576;2024-01-30T16:33:08;10.80;34.60
26035;DHT22;13809;48.632;11.576;2024-01-30T16:38:13;10.70;34.30
26035;DHT22;13809;48.632;11.576;2024-01-30T16:43:16;10.60;34.20
26035;DHT22;13809;48.632;11.576;2024-01-30T16:48:20;10.40;34.30
26035;DHT22;13809;48.632;11.576;2024-01-30T16:53:29;10.20;34.10
26035;DHT22;13809;48.632;11.576;2024-01-30T16:58:32;10.10;34.00
26035;DHT22;13809;48.632;11.576;2024-01-30T17:03:35;10.10;34.10
26035;DHT22;13809;48.632;11.576;2024-01-30T17:08:40;10.00;34.00
26035;DHT22;13809;48.632;11.576;2024-01-30T17:13:43;9.90;34.80
26035;DHT22;13809;48.632;11.576;2024-01-30T17:18:46;9.80;34.80
26035;DHT22;13809;48.632;11.576;2024-01-30T17:23:51;9.70;34.80
26035;DHT22;13809;48.632;11.576;2024-01-30T17:28:54;9.60;34.90
26035;DHT22;13809;48.632;11.576;2024-01-30T17:33:57;9.50;35.10
26035;DHT22;13809;48.632;11.576;2024-01-30T17:39:02;9.50;35.00
26035;DHT22;13809;48.632;11.576;2024-01-30T17:44:06;9.40;34.90
26035;DHT22;13809;48.632;11.576;2024-01-30T17:49:09;9.40;34.90
26035;DHT22;13809;48.632;11.576;2024-01-30T17:54:15;9.30;34.90
26035;DHT22;13809;48.632;11.576;2024-01-30T17:59:18;9.20;34.80
26035;DHT22;13809;48.632;11.576;2024-01-30T18:04:23;9.20;35.00
26035;DHT22;13809;48.632;11.576;2024-01-30T18:09:28;9.10;35.00
26035;DHT22;13809;48.632;11.576;2024-01-30T18:14:32;9.00;35.10
26035;DHT22;13809;48.632;11.576;2024-01-30T18:19:36;8.90;35.10
26035;DHT22;13809;48.632;11.576;2024-01-30T18:24:41;8.90;35.10
26035;DHT22;13809;48.632;11.576;2024-01-30T18:29:44;8.80;35.10
26035;DHT22;13809;48.632;11.576;2024-01-30T18:34:47;8.70;35.20
26035;DHT22;13809;48.632;11.576;2024-01-30T18:39:52;8.70;35.30
26035;DHT22;13809;48.632;11.576;2024-01-30T18:44:55;8.60;35.30
26035;DHT22;13809;48.632;11.576;2024-01-30T18:50:00;8.60;35.30
26035;DHT22;13809;48.632;11.576;2024-01-30T18:55:06;8.50;35.40
26035;DHT22;13809;48.632;11.576;2024-01-30T19:00:11;8.50;35.50
26035;DHT22;13809;48.632;11.576;2024-01-30T19:05:14;8.50;35.40
26035;DHT22;13809;48.632;11.576;2024-01-30T19:10:21;8.40;35.30
26035;DHT22;13809;48.632;11.576;2024-01-30T19:15:36;8.30;35.40
26035;DHT22;13809;48.632;11.576;2024-01-30T19:20:39;8.20;35.40
26035;DHT22;13809;48.632;11.576;2024-01-30T19:25:46;8.10;35.50
26035;DHT22;13809;48.632;11.576;2024-01-30T19:30:50;8.00;35.80
26035;DHT22;13809;48.632;11.576;2024-01-30T19:35:53;8.00;35.80
26035;DHT22;13809;48.632;11.576;2024-01-30T19:40:58;8.00;35.90
26035;DHT22;13809;48.632;11.576;2024-01-30T19:46:03;8.00;36.00
26035;DHT22;13809;48.632;11.576;2024-01-30T19:51:07;8.00;36.00
26035;DHT22;13809;48.632;11.576;2024-01-30T19:56:13;7.90;35.70
26035;DHT22;13809;48.632;11.576;2024-01-30T20:01:18;7.90;35.80
26035;DHT22;13809;48.632;11.576;2024-01-30T20:06:22;7.80;35.80
26035;DHT22;13809;48.632;11.576;2024-01-30T20:11:26;7.70;35.90
26035;DHT22;13809;48.632;11.576;2024-01-30T20:16:35;7.60;35.80
26035;DHT22;13809;48.632;11.576;2024-01-30T20:21:39;7.60;36.00
26035;DHT22;13809;48.632;11.576;2024-01-30T20:26:43;7.60;35.90
26035;DHT22;13809;48.632;11.576;2024-01-30T20:31:47;7.60;36.70
26035;DHT22;13809;48.632;11.576;2024-01-30T20:36:51;7.60;35.90
26035;DHT22;13809;48.632;11.576;2024-01-30T20:41:56;7.50;35.80
26035;DHT22;13809;48.632;11.576;2024-01-30T20:46:59;7.40;35.90
26035;DHT22;13809;48.632;11.576;2024-01-30T20:52:03;7.30;35.90
26035;DHT22;13809;48.632;11.576;2024-01-30T20:57:08;7.20;36.00
26035;DHT22;13809;48.632;11.576;2024-01-30T21:02:18;7.20;36.20
26035;DHT22;13809;48.632;11.576;2024-01-30T21:07:21;7.20;36.50
26035;DHT22;13809;48.632;11.576;2024-01-30T21:12:27;7.10;36.10
26035;DHT22;13809;48.632;11.576;2024-01-30T21:17:30;7.10;36.30
26035;DHT22;13809;48.632;11.576;2024-01-30T21:22:37;7.00;36.20
26035;DHT22;13809;48.632;11.576;2024-01-30T21:27:47;7.00;36.50
26035;DHT22;13809;48.632;11.576;2024-01-30T21:32:51;6.90;36.70
26035;DHT22;13809;48.632;11.576;2024-01-30T21:37:55;6.90;36.50
26035;DHT22;13809;48.632;11.576;2024-01-30T21:43:00;6.90;36.30
26035;DHT22;13809;48.632;11.576;2024-01-30T21:48:07;6.90;36.60
26035;DHT22;13809;48.632;11.576;2024-01-30T21:53:16;6.80;36.70
26035;DHT22;13809;48.632;11.576;2024-01-30T21:58:22;6.80;36.90
26035;DHT22;13809;48.632;11.576;2024-01-30T22:03:43;6.80;36.80
26035;DHT22;13809;48.632;11.576;2024-01-30T22:09:00;6.70;37.30
26035;DHT22;13809;48.632;11.576;2024-01-30T22:14:07;6.70;37.40
26035;DHT22;13809;48.632;11.576;2024-01-30T22:19:10;6.70;37.20
26035;DHT22;13809;48.632;11.576;2024-01-30T22:24:30;6.70;36.90
26035;DHT22;13809;48.632;11.576;2024-01-30T22:29:36;6.70;37.60
26035;DHT22;13809;48.632;11.576;2024-01-30T22:34:39;6.50;37.20
26035;DHT22;13809;48.632;11.576;2024-01-30T22:39:51;6.50;37.40
26035;DHT22;13809;48.632;11.576;2024-01-30T22:44:55;6.40;37.70
26035;DHT22;13809;48.632;11.576;2024-01-30T22:49:58;6.50;37.50
26035;DHT22;13809;48.632;11.576;2024-01-30T22:55:04;6.50;37.60
26035;DHT22;13809;48.632;11.576;2024-01-30T23:00:08;6.50;38.00
26035;DHT22;13809;48.632;11.576;2024-01-30T23:05:15;6.50;37.60
26035;DHT22;13809;48.632;11.576;2024-01-30T23:10:20;6.50;37.60
26035;DHT22;13809;48.632;11.576;2024-01-30T23:15:23;6.50;38.00
26035;DHT22;13809;48.632;11.576;2024-01-30T23:20:26;6.50;37.90
26035;DHT22;13809;48.632;11.576;2024-01-30T23:25:32;6.50;37.90
26035;DHT22;13809;48.632;11.576;2024-01-30T23:30:35;6.50;38.00
26035;DHT22;13809;48.632;11.576;2024-01-30T23:35:39;6.50;37.90
26035;DHT22;13809;48.632;11.576;2024-01-30T23:40:43;6.60;38.70
26035;DHT22;13809;48.632;11.576;2024-01-30T23:45:47;6.60;38.10
26035;DHT22;13809;48.632;11.576;2024-01-30T23:50:50;6.60;37.90
26035;DHT22;13809;48.632;11.576;2024-01-30T23:55:55;6.60;38.10
